createdAt,value
2023-02-11T00:00:31.359Z,102774.40
2023-02-11T00:03:23.534Z,102774.23
2023-02-11T00:06:04.901Z,102770.24
2023-02-11T00:08:37.170Z,102778.58
2023-02-11T00:11:13.524Z,102779.79
2023-02-11T00:13:46.546Z,102780.48
2023-02-11T00:16:21.244Z,102778.77
2023-02-11T00:18:54.305Z,102777.55
2023-02-11T00:21:27.981Z,102773.40
2023-02-11T00:24:02.450Z,102771.49
2023-02-11T00:26:36.774Z,102771.99
2023-02-11T00:29:09.065Z,102774.95
2023-02-11T00:31:41.590Z,102770.62
2023-02-11T00:34:13.963Z,102770.61
2023-02-11T00:36:46.162Z,102772.52
2023-02-11T00:39:18.474Z,102771.65
2023-02-11T00:41:51.008Z,102771.30
2023-02-11T00:44:23.372Z,102772.69
2023-02-11T00:46:55.619Z,102757.80
2023-02-11T00:49:27.861Z,102768.54
2023-02-11T00:52:00.183Z,102765.77
2023-02-11T00:54:32.552Z,102766.63
2023-02-11T00:57:04.880Z,102765.59
2023-02-11T00:59:37.364Z,102765.42
2023-02-11T01:02:09.951Z,102762.31
2023-02-11T01:04:42.329Z,102761.09
2023-02-11T01:07:14.517Z,102764.89
2023-02-11T01:09:46.823Z,102762.66
2023-02-11T01:12:19.408Z,102761.95
2023-02-11T01:14:51.771Z,102758.66
2023-02-11T01:17:24.175Z,102755.38
2023-02-11T01:19:56.619Z,102757.44
2023-02-11T01:22:28.977Z,102761.77
2023-02-11T01:25:01.649Z,102757.09
2023-02-11T01:27:34.058Z,102760.40
2023-02-11T01:30:09.990Z,102762.48
2023-02-11T01:32:41.011Z,102759.70
2023-02-11T01:35:13.368Z,102755.90
2023-02-11T01:37:45.603Z,102753.13
2023-02-11T01:40:19.331Z,102744.47
2023-02-11T01:42:51.586Z,102746.54
2023-02-11T01:46:14.729Z,102749.31
2023-02-11T01:48:50.471Z,102747.93
2023-02-11T01:51:26.535Z,102746.55
2023-02-11T01:54:32.953Z,102741.70
2023-02-11T01:57:26.022Z,102750.34
2023-02-11T02:00:15.735Z,102747.58
2023-02-11T02:02:54.323Z,102741.00
2023-02-11T02:05:33.827Z,102743.08
2023-02-11T02:08:12.902Z,102747.75
2023-02-11T02:10:47.927Z,102749.83
2023-02-11T02:13:20.190Z,102744.46
2023-02-11T02:15:54.609Z,102742.22
2023-02-11T02:18:45.902Z,102743.09
2023-02-11T02:21:42.409Z,102745.16
2023-02-11T02:24:40.999Z,102747.58
2023-02-11T02:27:31.192Z,102747.05
2023-02-11T02:30:26.820Z,102742.36
2023-02-11T02:33:28.753Z,102740.11
2023-02-11T02:36:10.968Z,102742.55
2023-02-11T02:38:49.907Z,102742.88
2023-02-11T02:41:25.133Z,102736.48
2023-02-11T02:43:57.516Z,102738.04
2023-02-11T02:46:32.891Z,102733.20
2023-02-11T02:49:07.876Z,102743.08
2023-02-11T02:52:18.784Z,102740.84
2023-02-11T02:55:08.860Z,102731.30
2023-02-11T02:58:01.968Z,102738.23
2023-02-11T03:00:40.212Z,102737.17
2023-02-11T03:03:27.355Z,102741.32
2023-02-11T03:06:05.155Z,102737.82
2023-02-11T03:08:42.431Z,102737.64
2023-02-11T03:11:17.720Z,102732.44
2023-02-11T03:13:52.410Z,102737.98
2023-02-11T03:16:29.754Z,102735.20
2023-02-11T03:19:07.802Z,102733.83
2023-02-11T03:21:43.859Z,102728.09
2023-02-11T03:24:17.572Z,102725.46
2023-02-11T03:26:54.004Z,102725.64
2023-02-11T03:29:36.953Z,102720.63
2023-02-11T03:32:18.838Z,102725.69
2023-02-11T03:34:57.457Z,102729.15
2023-02-11T03:37:34.300Z,102729.19
2023-02-11T03:40:11.759Z,102725.04
2023-02-11T03:42:49.437Z,102722.79
2023-02-11T03:45:24.939Z,102723.14
2023-02-11T03:48:01.136Z,102720.70
2023-02-11T03:50:35.173Z,102712.57
2023-02-11T03:53:09.210Z,102709.46
2023-02-11T03:55:44.354Z,102706.70
2023-02-11T03:58:16.761Z,102707.73
2023-02-11T04:00:49.522Z,102705.67
2023-02-11T04:03:21.897Z,102702.20
2023-02-11T04:05:54.315Z,102704.98
2023-02-11T04:08:26.665Z,102710.16
2023-02-11T04:10:58.978Z,102709.29
2023-02-11T04:13:31.629Z,102705.95
2023-02-11T04:16:04.102Z,102701.07
2023-02-11T04:18:36.410Z,102707.98
2023-02-11T04:21:09.453Z,102699.86
2023-02-11T04:23:41.665Z,102700.55
2023-02-11T04:26:13.980Z,102697.04
2023-02-11T04:28:46.234Z,102699.58
2023-02-11T04:31:18.648Z,102699.91
2023-02-11T04:33:51.304Z,102702.34
2023-02-11T04:36:23.638Z,102702.20
2023-02-11T04:38:56.007Z,102696.33
2023-02-11T04:41:28.328Z,102697.37
2023-02-11T04:44:00.749Z,102689.96
2023-02-11T04:46:33.317Z,102699.32
2023-02-11T04:49:06.016Z,102702.80
2023-02-11T04:51:38.259Z,102704.00
2023-02-11T04:54:10.742Z,102705.38
2023-02-11T04:56:43.115Z,102707.27
2023-02-11T04:59:15.834Z,102708.51
2023-02-11T05:01:48.131Z,102721.13
2023-02-11T05:04:20.694Z,102718.70
2023-02-11T05:06:53.103Z,102719.59
2023-02-11T05:09:25.474Z,102720.48
2023-02-11T05:11:57.849Z,102729.67
2023-02-11T05:14:30.298Z,102731.41
2023-02-11T05:17:02.708Z,102728.13
2023-02-11T05:19:35.356Z,102737.63
2023-02-11T05:22:07.910Z,102736.93
2023-02-11T05:24:40.254Z,102736.94
2023-02-11T05:27:12.792Z,102737.46
2023-02-11T05:29:45.250Z,102740.39
2023-02-11T05:32:17.662Z,102737.45
2023-02-11T05:34:50.101Z,102737.29
2023-02-11T05:37:22.348Z,102735.21
2023-02-11T05:39:54.699Z,102748.33
2023-02-11T05:42:26.940Z,102752.59
2023-02-11T05:44:59.244Z,102754.64
2023-02-11T05:47:31.878Z,102761.40
2023-02-11T05:50:04.314Z,102765.23
2023-02-11T05:52:36.753Z,102763.16
2023-02-11T05:55:09.944Z,102761.29
2023-02-11T05:57:42.373Z,102761.84
2023-02-11T06:00:17.438Z,102762.73
2023-02-11T06:02:49.839Z,102759.13
2023-02-11T06:05:22.605Z,102764.17
2023-02-11T06:07:55.035Z,102759.86
2023-02-11T06:10:27.389Z,102759.02
2023-02-11T06:12:59.709Z,102756.92
2023-02-11T06:15:31.982Z,102755.89
2023-02-11T06:18:04.260Z,102751.38
2023-02-11T06:20:36.502Z,102747.20
2023-02-11T06:23:08.856Z,102744.56
2023-02-11T06:25:41.509Z,102746.77
2023-02-11T06:28:14.069Z,102749.31
2023-02-11T06:30:46.549Z,102745.42
2023-02-11T06:33:18.957Z,102748.56
2023-02-11T06:35:51.502Z,102748.90
2023-02-11T06:38:24.085Z,102748.63
2023-02-11T06:40:56.473Z,102750.41
2023-02-11T06:43:28.918Z,102748.88
2023-02-11T06:46:01.254Z,102745.25
2023-02-11T06:48:33.590Z,102743.09
2023-02-11T06:51:09.984Z,102741.42
2023-02-11T06:53:44.674Z,102739.35
2023-02-11T06:56:19.562Z,102736.69
2023-02-11T06:58:56.122Z,102728.34
2023-02-11T07:01:29.586Z,102728.75
2023-02-11T07:04:02.003Z,102728.36
2023-02-11T07:06:34.423Z,102725.45
2023-02-11T07:09:07.055Z,102721.48
2023-02-11T07:11:40.602Z,102718.52
2023-02-11T07:14:14.147Z,102717.65
2023-02-11T07:16:46.554Z,102702.95
2023-02-11T07:19:18.990Z,102702.90
2023-02-11T07:21:51.324Z,102702.16
2023-02-11T07:24:25.156Z,102698.16
2023-02-11T07:26:57.606Z,102696.82
2023-02-11T07:29:30.052Z,102696.19
2023-02-11T07:32:02.424Z,102689.74
2023-02-11T07:34:35.247Z,102684.29
2023-02-11T07:37:07.604Z,102681.77
2023-02-11T07:39:39.885Z,102677.54
2023-02-11T07:42:12.252Z,102680.45
2023-02-11T07:44:44.686Z,102675.19
2023-02-11T07:47:16.928Z,102675.96
2023-02-11T07:49:49.769Z,102678.73
2023-02-11T07:52:22.373Z,102680.65
2023-02-11T07:54:54.706Z,102679.91
2023-02-11T07:57:27.112Z,102679.73
2023-02-11T07:59:59.384Z,102676.86
2023-02-11T08:02:31.826Z,102676.29
2023-02-11T08:05:04.232Z,102679.23
2023-02-11T08:07:37.061Z,102675.52
2023-02-11T08:10:10.058Z,102676.66
2023-02-11T08:12:42.339Z,102675.17
2023-02-11T08:15:14.670Z,102672.84
2023-02-11T08:17:47.073Z,102676.20
2023-02-11T08:20:19.800Z,102672.44
2023-02-11T08:22:52.101Z,102669.73
2023-02-11T08:25:24.561Z,102673.25
2023-02-11T08:27:56.928Z,102668.82
2023-02-11T08:30:30.581Z,102663.14
2023-02-11T08:33:03.035Z,102657.02
2023-02-11T08:35:39.947Z,102663.77
2023-02-11T08:38:12.224Z,102661.80
2023-02-11T08:40:44.562Z,102661.48
2023-02-11T08:43:17.146Z,102654.42
2023-02-11T08:45:49.739Z,102655.42
2023-02-11T08:48:22.298Z,102658.20
2023-02-11T08:50:54.579Z,102657.69
2023-02-11T08:53:26.993Z,102651.18
2023-02-11T08:55:59.233Z,102651.91
2023-02-11T08:58:31.720Z,102652.67
2023-02-11T09:01:10.025Z,102651.52
2023-02-11T09:03:42.634Z,102645.75
2023-02-11T09:06:17.765Z,102640.27
2023-02-11T09:08:53.388Z,102639.51
2023-02-11T09:11:29.914Z,102637.90
2023-02-11T09:14:03.070Z,102639.36
2023-02-11T09:16:37.475Z,102633.27
2023-02-11T09:19:11.015Z,102633.59
2023-02-11T09:21:43.462Z,102631.96
2023-02-11T09:24:16.029Z,102623.56
2023-02-11T09:26:49.787Z,102618.23
2023-02-11T09:29:22.212Z,102614.48
2023-02-11T09:31:54.735Z,102615.16
2023-02-11T09:34:27.183Z,102614.24
2023-02-11T09:36:59.701Z,102614.27
2023-02-11T09:39:32.285Z,102605.83
2023-02-11T09:42:35.815Z,102599.16
2023-02-11T09:45:15.993Z,102587.09
2023-02-11T09:47:55.773Z,102585.77
2023-02-11T09:50:33.967Z,102578.62
2023-02-11T09:53:12.314Z,102566.21
2023-02-11T09:55:47.861Z,102567.38
2023-02-11T09:58:30.194Z,102558.85
2023-02-11T10:01:09.897Z,102554.73
2023-02-11T10:04:05.140Z,102551.79
2023-02-11T10:06:44.441Z,102547.26
2023-02-11T10:09:38.428Z,102537.59
2023-02-11T10:12:29.337Z,102539.15
2023-02-11T10:15:14.826Z,102529.91
2023-02-11T10:18:01.041Z,102522.89
2023-02-11T10:20:38.826Z,102519.98
2023-02-11T10:23:17.945Z,102511.65
2023-02-11T10:25:54.807Z,102507.10
2023-02-11T10:28:34.028Z,102502.75
2023-02-11T10:31:11.621Z,102497.14
2023-02-11T10:33:48.417Z,102493.77
2023-02-11T10:36:24.026Z,102487.33
2023-02-11T10:38:56.447Z,102482.19
2023-02-11T10:41:34.017Z,102477.52
2023-02-11T10:44:09.200Z,102470.26
2023-02-11T10:46:41.672Z,102464.90
2023-02-11T10:49:39.495Z,102459.27
2023-02-11T10:52:23.854Z,102452.89
2023-02-11T10:55:05.916Z,102444.29
2023-02-11T10:57:42.869Z,102445.36
2023-02-11T11:00:32.552Z,102436.71
2023-02-11T11:03:06.760Z,102433.06
2023-02-11T11:05:48.424Z,102428.20
2023-02-11T11:08:21.575Z,102425.17
2023-02-11T11:11:06.104Z,102422.04
2023-02-11T11:13:40.347Z,102425.30
2023-02-11T11:16:24.722Z,102419.38
2023-02-11T11:19:21.752Z,102413.58
2023-02-11T11:21:56.385Z,102409.20
2023-02-11T11:24:34.487Z,102407.83
2023-02-11T11:27:07.541Z,102403.67
2023-02-11T11:29:45.241Z,102393.68
2023-02-11T11:32:22.330Z,102386.05
2023-02-11T11:34:56.922Z,102379.27
2023-02-11T11:37:31.872Z,102375.36
2023-02-11T11:40:10.066Z,102368.11
2023-02-11T11:42:43.141Z,102364.75
2023-02-11T11:45:28.071Z,102360.14
2023-02-11T11:48:04.608Z,102352.02
2023-02-11T11:50:41.579Z,102342.52
2023-02-11T11:53:22.013Z,102339.82
2023-02-11T11:56:02.229Z,102329.77
2023-02-11T11:58:35.351Z,102322.09
2023-02-11T12:01:24.418Z,102327.64
2023-02-11T12:04:36.853Z,102325.65
2023-02-11T12:07:25.963Z,102309.25
2023-02-11T12:10:29.442Z,102303.63
2023-02-11T12:13:10.882Z,102304.89
2023-02-11T12:15:52.505Z,102302.08
2023-02-11T12:19:10.502Z,102297.23
2023-02-11T12:21:50.899Z,102296.16
2023-02-11T12:24:37.613Z,102290.69
2023-02-11T12:27:16.144Z,102293.48
2023-02-11T12:30:01.011Z,102289.59
2023-02-11T12:32:40.433Z,102274.32
2023-02-11T12:35:32.802Z,102271.67
2023-02-11T12:38:30.327Z,102269.09
2023-02-11T12:41:41.114Z,102266.09
2023-02-11T12:44:24.816Z,102254.55
2023-02-11T12:47:09.796Z,102247.40
2023-02-11T12:50:09.192Z,102240.69
2023-02-11T12:52:59.794Z,102241.44
2023-02-11T12:55:37.852Z,102229.52
2023-02-11T12:58:19.651Z,102232.27
2023-02-11T13:00:56.827Z,102222.41
2023-02-11T13:03:36.506Z,102216.04
2023-02-11T13:06:13.459Z,102216.17
2023-02-11T13:08:48.729Z,102219.40
2023-02-11T13:11:25.416Z,102213.09
2023-02-11T13:14:03.420Z,102214.95
2023-02-11T13:16:41.691Z,102208.50
2023-02-11T13:19:26.782Z,102205.69
2023-02-11T13:22:15.014Z,102204.00
2023-02-11T13:24:54.416Z,102205.45
2023-02-11T13:27:38.267Z,102211.80
2023-02-11T13:30:29.765Z,102207.48
2023-02-11T13:33:34.212Z,102210.41
2023-02-11T13:36:24.469Z,102215.23
2023-02-11T13:39:08.259Z,102215.80
2023-02-11T13:41:44.285Z,102210.20
2023-02-11T13:44:26.349Z,102203.58
2023-02-11T13:47:03.382Z,102201.64
2023-02-11T13:49:42.467Z,102200.36
2023-02-11T13:52:26.953Z,102198.48
2023-02-11T13:55:06.121Z,102195.20
2023-02-11T13:57:41.049Z,102194.02
2023-02-11T14:00:50.777Z,102187.80
2023-02-11T14:03:52.467Z,102184.66
2023-02-11T14:06:47.580Z,102175.94
2023-02-11T14:09:42.491Z,102170.36
2023-02-11T14:12:31.434Z,102169.59
2023-02-11T14:15:22.653Z,102167.13
2023-02-11T14:17:55.022Z,102164.54
2023-02-11T14:20:47.249Z,102158.77
2023-02-11T14:23:28.654Z,102147.88
2023-02-11T14:26:19.914Z,102140.08
2023-02-11T14:28:59.367Z,102129.83
2023-02-11T14:31:41.484Z,102131.59
2023-02-11T14:34:34.640Z,102129.84
2023-02-11T14:37:19.490Z,102130.98
2023-02-11T14:40:04.234Z,102127.31
2023-02-11T14:42:39.306Z,102122.84
2023-02-11T14:45:19.850Z,102122.95
2023-02-11T14:47:58.323Z,102119.23
2023-02-11T14:50:34.927Z,102113.69
2023-02-11T14:53:09.243Z,102107.81
2023-02-11T14:55:46.119Z,102102.49
2023-02-11T14:58:21.099Z,102097.52
2023-02-11T15:00:58.887Z,102097.64
2023-02-11T15:03:37.080Z,102095.84
2023-02-11T15:06:18.483Z,102100.51
2023-02-11T15:08:54.610Z,102092.23
2023-02-11T15:11:26.604Z,102095.33
2023-02-11T15:14:02.521Z,102087.75
2023-02-11T15:16:34.377Z,102081.02
2023-02-11T15:19:08.793Z,102075.52
2023-02-11T15:21:41.248Z,102071.11
2023-02-11T15:24:27.356Z,102065.85
2023-02-11T15:27:01.795Z,102060.11
2023-02-11T15:29:40.881Z,102049.64
2023-02-11T15:32:19.389Z,102048.88
2023-02-11T15:34:54.161Z,102048.04
2023-02-11T15:37:29.868Z,102056.30
2023-02-11T15:40:19.029Z,102055.41
2023-02-11T15:42:59.298Z,102057.27
2023-02-11T15:45:35.153Z,102059.15
2023-02-11T15:48:14.958Z,102052.88
2023-02-11T15:50:54.214Z,102050.21
2023-02-11T15:53:32.695Z,102049.48
2023-02-11T15:56:12.253Z,102052.60
2023-02-11T15:58:48.954Z,102052.55
2023-02-11T16:01:31.778Z,102050.02
2023-02-11T16:04:07.338Z,102045.54
2023-02-11T16:06:41.857Z,102045.06
2023-02-11T16:09:32.854Z,102050.30
2023-02-11T16:12:20.041Z,102057.44
2023-02-11T16:14:52.580Z,102056.90
2023-02-11T16:17:28.886Z,102054.17
2023-02-11T16:19:59.541Z,102058.08
2023-02-11T16:22:38.222Z,102058.93
2023-02-11T16:25:20.344Z,102061.70
2023-02-11T16:27:54.926Z,102063.88
2023-02-11T16:30:33.973Z,102060.14
2023-02-11T16:33:06.869Z,102059.75
2023-02-11T16:35:39.326Z,102064.46
2023-02-11T16:38:11.744Z,102059.60
2023-02-11T16:40:46.260Z,102060.36
2023-02-11T16:43:21.322Z,102065.66
2023-02-11T16:45:53.819Z,102067.95
2023-02-11T16:48:26.590Z,102066.93
2023-02-11T16:50:59.202Z,102064.16
2023-02-11T16:53:31.728Z,102061.16
2023-02-11T16:56:04.431Z,102063.14
2023-02-11T16:58:36.671Z,102067.91
2023-02-11T17:01:11.033Z,102070.97
2023-02-11T17:03:45.734Z,102071.80
2023-02-11T17:06:18.131Z,102072.15
2023-02-11T17:08:50.345Z,102070.77
2023-02-11T17:11:22.810Z,102062.32
2023-02-11T17:13:55.203Z,102061.81
2023-02-11T17:16:29.985Z,102054.60
2023-02-11T17:19:02.542Z,102048.74
2023-02-11T17:21:34.889Z,102045.48
2023-02-11T17:24:07.823Z,102034.48
2023-02-11T17:26:40.475Z,102040.79
2023-02-11T17:29:15.773Z,102037.04
2023-02-11T17:31:48.113Z,102031.05
2023-02-11T17:34:21.049Z,102023.67
2023-02-11T17:36:53.442Z,102019.94
2023-02-11T17:39:26.080Z,102017.55
2023-02-11T17:41:58.538Z,102018.38
2023-02-11T17:44:30.838Z,102015.65
2023-02-11T17:47:03.301Z,102016.40
2023-02-11T17:49:35.675Z,102009.90
2023-02-11T17:52:08.244Z,102005.86
2023-02-11T17:54:40.865Z,102005.86
2023-02-11T17:57:13.455Z,101996.27
2023-02-11T17:59:45.972Z,102006.30
2023-02-11T18:02:18.400Z,102007.55
2023-02-11T18:04:52.469Z,102007.64
2023-02-11T18:07:24.730Z,102009.08
2023-02-11T18:09:57.081Z,102001.36
2023-02-11T18:12:29.495Z,101994.15
2023-02-11T18:15:01.860Z,101991.30
2023-02-11T18:17:34.213Z,101992.39
2023-02-11T18:20:08.116Z,101985.55
2023-02-11T18:22:41.202Z,101984.14
2023-02-11T18:25:15.188Z,101984.83
2023-02-11T18:27:47.834Z,101985.05
2023-02-11T18:30:22.425Z,101980.34
2023-02-11T18:32:57.603Z,101982.25
2023-02-11T18:35:29.967Z,101979.65
2023-02-11T18:38:02.455Z,101977.23
2023-02-11T18:40:35.617Z,101970.10
2023-02-11T18:43:07.952Z,101950.02
2023-02-11T18:45:43.492Z,101951.27
2023-02-11T18:48:16.962Z,101949.16
2023-02-11T18:50:49.564Z,101940.13
2023-02-11T18:53:22.349Z,101936.83
2023-02-11T18:55:55.516Z,101941.25
2023-02-11T18:58:28.139Z,101942.52
2023-02-11T19:01:00.425Z,101930.10
2023-02-11T19:03:32.759Z,101919.77
2023-02-11T19:06:09.472Z,101918.30
2023-02-11T19:08:41.740Z,101912.80
2023-02-11T19:11:17.980Z,101909.95
2023-02-11T19:13:51.491Z,101903.77
2023-02-11T19:16:24.079Z,101902.61
2023-02-11T19:18:58.079Z,101901.13
2023-02-11T19:21:30.847Z,101896.83
2023-02-11T19:24:07.674Z,101889.98
2023-02-11T19:26:43.183Z,101882.48
2023-02-11T19:29:15.880Z,101879.55
2023-02-11T19:31:48.315Z,101878.25
2023-02-11T19:34:22.478Z,101870.98
2023-02-11T19:36:55.412Z,101864.80
2023-02-11T19:39:27.840Z,101866.02
2023-02-11T19:42:00.094Z,101862.03
2023-02-11T19:44:32.372Z,101859.00
2023-02-11T19:47:04.628Z,101846.31
2023-02-11T19:49:37.034Z,101850.23
2023-02-11T19:52:09.759Z,101847.67
2023-02-11T19:54:42.069Z,101836.27
2023-02-11T19:57:14.371Z,101833.20
2023-02-11T19:59:46.704Z,101837.21
2023-02-11T20:02:19.026Z,101837.05
2023-02-11T20:04:51.624Z,101835.45
2023-02-11T20:07:23.958Z,101831.66
2023-02-11T20:09:56.193Z,101828.52
2023-02-11T20:12:28.421Z,101821.90
2023-02-11T20:15:00.779Z,101813.56
2023-02-11T20:17:33.250Z,101811.46
2023-02-11T20:20:05.778Z,101799.38
2023-02-11T20:22:38.471Z,101802.13
2023-02-11T20:25:14.153Z,101801.44
2023-02-11T20:27:46.667Z,101806.14
2023-02-11T20:30:19.581Z,101806.91
2023-02-11T20:32:51.942Z,101805.70
2023-02-11T20:35:24.219Z,101811.91
2023-02-11T20:37:56.655Z,101814.46
2023-02-11T20:40:28.839Z,101833.32
2023-02-11T20:43:01.249Z,101830.70
2023-02-11T20:45:36.228Z,101824.98
2023-02-11T20:48:08.831Z,101809.67
2023-02-11T20:50:41.593Z,101805.63
2023-02-11T20:53:14.046Z,101806.40
2023-02-11T20:55:46.350Z,101804.38
2023-02-11T20:58:18.625Z,101804.99
2023-02-11T21:00:50.854Z,101800.38
2023-02-11T21:03:23.390Z,101792.46
2023-02-11T21:06:00.853Z,101779.77
2023-02-11T21:08:33.467Z,101767.40
2023-02-11T21:11:09.490Z,101772.70
2023-02-11T21:13:43.297Z,101781.64
2023-02-11T21:16:18.410Z,101783.81
2023-02-11T21:18:51.533Z,101786.33
2023-02-11T21:21:24.387Z,101784.95
2023-02-11T21:23:56.948Z,101788.62
2023-02-11T21:26:29.510Z,101789.28
2023-02-11T21:29:01.830Z,101792.27
2023-02-11T21:31:36.698Z,101794.77
2023-02-11T21:34:09.549Z,101796.27
2023-02-11T21:36:41.904Z,101789.40
2023-02-11T21:39:15.371Z,101788.36
2023-02-11T21:41:47.761Z,101798.19
2023-02-11T21:44:20.433Z,101799.56
2023-02-11T21:46:52.839Z,101796.50
2023-02-11T21:49:25.167Z,101797.63
2023-02-11T21:51:57.493Z,101799.75
2023-02-11T21:54:32.127Z,101795.20
2023-02-11T21:57:04.420Z,101796.13
2023-02-11T21:59:36.907Z,101800.80
2023-02-11T22:02:10.253Z,101799.79
2023-02-11T22:04:42.635Z,101799.40
2023-02-11T22:07:15.028Z,101797.01
2023-02-11T22:09:47.679Z,101793.86
2023-02-11T22:12:20.206Z,101791.61
2023-02-11T22:14:52.476Z,101784.83
2023-02-11T22:17:24.952Z,101789.55
2023-02-11T22:19:57.742Z,101789.70
2023-02-11T22:22:30.289Z,101781.94
2023-02-11T22:25:03.458Z,101778.70
2023-02-11T22:27:35.700Z,101772.85
2023-02-11T22:30:10.103Z,101762.33
2023-02-11T22:32:42.653Z,101761.31
2023-02-11T22:35:14.980Z,101753.15
2023-02-11T22:37:47.199Z,101759.69
2023-02-11T22:40:19.741Z,101757.13
2023-02-11T22:42:52.057Z,101764.15
2023-02-11T22:45:24.600Z,101763.06
2023-02-11T22:47:56.922Z,101759.48
2023-02-11T22:50:29.346Z,101759.47
2023-02-11T22:53:01.635Z,101751.45
2023-02-11T22:55:37.191Z,101749.55
2023-02-11T22:58:09.581Z,101752.88
2023-02-11T23:00:43.473Z,101751.02
2023-02-11T23:03:15.819Z,101756.96
2023-02-11T23:05:48.113Z,101764.65
2023-02-11T23:08:20.550Z,101762.34
2023-02-11T23:10:52.963Z,101750.88
2023-02-11T23:13:25.159Z,101746.02
2023-02-11T23:15:57.630Z,101748.44
2023-02-11T23:18:30.324Z,101750.02
2023-02-11T23:21:11.310Z,101757.42
2023-02-11T23:23:45.094Z,101755.00
2023-02-11T23:26:19.619Z,101751.57
2023-02-11T23:28:52.152Z,101736.93
2023-02-11T23:31:26.231Z,101723.09
2023-02-11T23:33:59.003Z,101723.58
2023-02-11T23:36:31.508Z,101725.73
2023-02-11T23:39:04.168Z,101721.74
2023-02-11T23:41:36.497Z,101718.71
2023-02-11T23:44:08.881Z,101709.72
2023-02-11T23:46:41.358Z,101710.52
2023-02-11T23:49:15.625Z,101715.52
2023-02-11T23:51:48.070Z,101725.16
2023-02-11T23:54:20.467Z,101726.27
2023-02-11T23:56:52.786Z,101734.73
2023-02-11T23:59:25.091Z,101731.52
